Stolt Surf — ZCSR3 — position and weather

sailwx.info

Track history (hours):
 
Tides and Currents Weather Stations Pressure Air Temp Water Temp Dewpoint Dewpoint Depression Visibility Wind Speed Wind Dir Waves Ship Positions

Stolt Surf

Last reported at 2014-Jul-01 20:07 UTC. Time now 2014-Jul-24 13:03 UTC.
Position N 33°36' E 128°29'.
Warning: this ship's position is 22 days out of date.

Length 163 m; draft 9.9 m.

Type: Ship. MMSI: 319545000.

Date/timePositionNaut miles runAvg speedWind from/ knotsBaromVisibWave heightAir tempDewpointWater temp
2014-Jul-01 20:07N 33°36' E 128°29'  
2014-Jun-28 18:16N 31°05' E 124°16'13012.1
2014-Jun-28 07:33N 31°19' E 121°45'1211.6
2014-Jun-28 06:33N 31°24' E 121°33'1210.2
2014-Jun-28 05:21N 31°32' E 121°21'3512.2
2014-Jun-28 02:30N 31°56' E 120°52'1112.1
2014-Jun-28 01:33N 31°60' E 120°39'1111.3
2014-Jun-28 00:34N 32°03' E 120°26'1212.0
2014-Jun-27 23:34N 31°56' E 120°15'1110.6
2014-Jun-27 22:33N 31°58' E 120°02'1 0.9
2014-Jun-27 21:23N 31°58' E 120°01'0 0.0
2014-Jun-27 20:30N 31°58' E 120°01'0 0.0
2014-Jun-27 19:32N 31°58' E 120°01'0 0.0
2014-Jun-27 18:29N 31°58' E 120°01'0 0.0
2014-Jun-27 17:29N 31°58' E 120°01'0 0.0
2014-Jun-27 16:29N 31°58' E 120°01'0 0.0
2014-Jun-27 15:30N 31°58' E 120°01'0 0.0
2014-Jun-27 14:17N 31°58' E 120°01'0 0.0
2014-Jun-27 13:17N 31°58' E 120°01'0 0.0
2014-Jun-27 12:29N 31°58' E 120°01'0 0.0
2014-Jun-27 11:29N 31°58' E 120°01'0 0.0
2014-Jun-27 10:29N 31°58' E 120°01'0 0.0
2014-Jun-27 09:29N 31°58' E 120°01'0 0.0
2014-Jun-27 08:23N 31°58' E 120°01'0 0.0
2014-Jun-27 07:17N 31°58' E 120°01'0 0.0
2014-Jun-27 06:29N 31°58' E 120°01'0 0.0
2014-Jun-27 05:24N 31°58' E 120°01'0 0.0
2014-Jun-27 04:24N 31°58' E 120°01'0 0.0
2014-Jun-27 03:29N 31°58' E 120°01'0 0.0
2014-Jun-27 02:29N 31°58' E 120°01'0 0.0
2014-Jun-27 01:23N 31°58' E 120°01'0 0.0
2014-Jun-27 00:30N 31°58' E 120°01'0 0.0
2014-Jun-26 23:24N 31°58' E 120°01'0 0.0
2014-Jun-26 22:29N 31°58' E 120°01'0 0.0
2014-Jun-26 21:32N 31°58' E 120°01'0 0.0
2014-Jun-26 20:23N 31°58' E 120°01'0 0.0
2014-Jun-26 19:18N 31°58' E 120°01'0 0.0
2014-Jun-26 18:30N 31°58' E 120°01'0 0.0
2014-Jun-26 17:17N 31°58' E 120°01'0 0.0
2014-Jun-26 16:17N 31°58' E 120°01'0 0.0
2014-Jun-26 15:29N 31°58' E 120°01'0 0.0
2014-Jun-26 14:29N 31°58' E 120°01'0 0.0
2014-Jun-26 13:32N 31°58' E 120°01'0 0.0
2014-Jun-26 12:30N 31°58' E 120°01'0 0.0
2014-Jun-26 11:30N 31°58' E 120°01'0 0.0
2014-Jun-26 10:32N 31°58' E 120°01'0 0.0
2014-Jun-26 09:32N 31°58' E 120°01'0 0.0
2014-Jun-26 08:32N 31°58' E 120°01'0 0.3
2014-Jun-26 07:33N 31°58' E 120°02'1111.2
2014-Jun-26 06:33N 31°56' E 120°15'10 9.6
2014-Jun-26 05:34N 31°58' E 120°26'4 4.4
2014-Jun-26 04:32N 32°02' E 120°28'7 7.2
2014-Jun-26 03:33N 32°00' E 120°36'10 9.8
2014-Jun-26 02:33N 32°01' E 120°48'10 9.7
2014-Jun-26 01:33N 31°52' E 120°54'11 9.3
2014-Jun-26 00:23N 31°46' E 121°04'1210.9
2014-Jun-25 23:16N 31°38' E 121°15'6 7.2
2014-Jun-25 22:26N 31°34' E 121°20'0 0.0
2014-Jun-25 19:32N 31°34' E 121°20'0 0.2
2014-Jun-25 18:32N 31°34' E 121°20'0 0.1
2014-Jun-25 17:20N 31°34' E 121°20'0 0.0
2014-Jun-25 16:26N 31°34' E 121°20'0 0.0
2014-Jun-25 14:20N 31°34' E 121°20'0 0.0
2014-Jun-25 09:20N 31°34' E 121°20'0 0.0
2014-Jun-25 07:32N 31°34' E 121°20'0 0.1
2014-Jun-25 06:33N 31°34' E 121°20'8 8.5
2014-Jun-25 05:33N 31°29' E 121°27'7 7.4
2014-Jun-25 04:33N 31°24' E 121°34'9 8.6
2014-Jun-25 03:33N 31°20' E 121°43'  
Track history (hours):
 
Tides and Currents Weather Stations Pressure Air Temp Water Temp Dewpoint Dewpoint Depression Visibility Wind Speed Wind Dir Waves Ship Positions

Stolt Surf

Last reported at 2014-Jul-01 20:07 UTC. Time now 2014-Jul-24 13:03 UTC.
Position N 33°36' E 128°29'.
Warning: this ship's position is 22 days out of date.

Length 163 m; draft 9.9 m.

Type: Ship. MMSI: 319545000.

Date/timePositionNaut miles runAvg speedWind from/ knotsBaromVisibWave heightAir tempDewpointWater temp
2014-Jul-01 20:07N 33°36' E 128°29'  
2014-Jun-28 18:16N 31°05' E 124°16'13012.1
2014-Jun-28 07:33N 31°19' E 121°45'1211.6
2014-Jun-28 06:33N 31°24' E 121°33'1210.2
2014-Jun-28 05:21N 31°32' E 121°21'3512.2
2014-Jun-28 02:30N 31°56' E 120°52'1112.1
2014-Jun-28 01:33N 31°60' E 120°39'1111.3
2014-Jun-28 00:34N 32°03' E 120°26'1212.0
2014-Jun-27 23:34N 31°56' E 120°15'1110.6
2014-Jun-27 22:33N 31°58' E 120°02'1 0.9
2014-Jun-27 21:23N 31°58' E 120°01'0 0.0
2014-Jun-27 20:30N 31°58' E 120°01'0 0.0
2014-Jun-27 19:32N 31°58' E 120°01'0 0.0
2014-Jun-27 18:29N 31°58' E 120°01'0 0.0
2014-Jun-27 17:29N 31°58' E 120°01'0 0.0
2014-Jun-27 16:29N 31°58' E 120°01'0 0.0
2014-Jun-27 15:30N 31°58' E 120°01'0 0.0
2014-Jun-27 14:17N 31°58' E 120°01'0 0.0
2014-Jun-27 13:17N 31°58' E 120°01'0 0.0
2014-Jun-27 12:29N 31°58' E 120°01'0 0.0
2014-Jun-27 11:29N 31°58' E 120°01'0 0.0
2014-Jun-27 10:29N 31°58' E 120°01'0 0.0
2014-Jun-27 09:29N 31°58' E 120°01'0 0.0
2014-Jun-27 08:23N 31°58' E 120°01'0 0.0
2014-Jun-27 07:17N 31°58' E 120°01'0 0.0
2014-Jun-27 06:29N 31°58' E 120°01'0 0.0
2014-Jun-27 05:24N 31°58' E 120°01'0 0.0
2014-Jun-27 04:24N 31°58' E 120°01'0 0.0
2014-Jun-27 03:29N 31°58' E 120°01'0 0.0
2014-Jun-27 02:29N 31°58' E 120°01'0 0.0
2014-Jun-27 01:23N 31°58' E 120°01'0 0.0
2014-Jun-27 00:30N 31°58' E 120°01'0 0.0
2014-Jun-26 23:24N 31°58' E 120°01'0 0.0
2014-Jun-26 22:29N 31°58' E 120°01'0 0.0
2014-Jun-26 21:32N 31°58' E 120°01'0 0.0
2014-Jun-26 20:23N 31°58' E 120°01'0 0.0
2014-Jun-26 19:18N 31°58' E 120°01'0 0.0
2014-Jun-26 18:30N 31°58' E 120°01'0 0.0
2014-Jun-26 17:17N 31°58' E 120°01'0 0.0
2014-Jun-26 16:17N 31°58' E 120°01'0 0.0
2014-Jun-26 15:29N 31°58' E 120°01'0 0.0
2014-Jun-26 14:29N 31°58' E 120°01'0 0.0
2014-Jun-26 13:32N 31°58' E 120°01'0 0.0
2014-Jun-26 12:30N 31°58' E 120°01'0 0.0
2014-Jun-26 11:30N 31°58' E 120°01'0 0.0
2014-Jun-26 10:32N 31°58' E 120°01'0 0.0
2014-Jun-26 09:32N 31°58' E 120°01'0 0.0
2014-Jun-26 08:32N 31°58' E 120°01'0 0.3
2014-Jun-26 07:33N 31°58' E 120°02'1111.2
2014-Jun-26 06:33N 31°56' E 120°15'10 9.6
2014-Jun-26 05:34N 31°58' E 120°26'4 4.4
2014-Jun-26 04:32N 32°02' E 120°28'7 7.2
2014-Jun-26 03:33N 32°00' E 120°36'10 9.8
2014-Jun-26 02:33N 32°01' E 120°48'10 9.7
2014-Jun-26 01:33N 31°52' E 120°54'11 9.3
2014-Jun-26 00:23N 31°46' E 121°04'1210.9
2014-Jun-25 23:16N 31°38' E 121°15'6 7.2
2014-Jun-25 22:26N 31°34' E 121°20'0 0.0
2014-Jun-25 19:32N 31°34' E 121°20'0 0.2
2014-Jun-25 18:32N 31°34' E 121°20'0 0.1
2014-Jun-25 17:20N 31°34' E 121°20'0 0.0
2014-Jun-25 16:26N 31°34' E 121°20'0 0.0
2014-Jun-25 14:20N 31°34' E 121°20'0 0.0
2014-Jun-25 09:20N 31°34' E 121°20'0 0.0
2014-Jun-25 07:32N 31°34' E 121°20'0 0.1
2014-Jun-25 06:33N 31°34' E 121°20'8 8.5
2014-Jun-25 05:33N 31°29' E 121°27'7 7.4
2014-Jun-25 04:33N 31°24' E 121°34'9 8.6
2014-Jun-25 03:33N 31°20' E 121°43'  

Dump ship's entire track history